sensor_id;sensor_type;location;lat;lon;timestamp;temperature;humidity
43665;DHT22;29263;48.172;11.484;2023-04-16T00:00:20;5.60;99.90
43665;DHT22;29263;48.172;11.484;2023-04-16T00:02:46;5.60;99.90
43665;DHT22;29263;48.172;11.484;2023-04-16T00:05:13;5.60;99.90
43665;DHT22;29263;48.172;11.484;2023-04-16T00:07:38;5.60;99.90
43665;DHT22;29263;48.172;11.484;2023-04-16T00:10:05;5.60;99.90
43665;DHT22;29263;48.172;11.484;2023-04-16T00:12:31;5.50;99.90
43665;DHT22;29263;48.172;11.484;2023-04-16T00:14:57;5.60;99.90
43665;DHT22;29263;48.172;11.484;2023-04-16T00:17:23;5.60;99.90
43665;DHT22;29263;48.172;11.484;2023-04-16T00:19:48;5.70;99.90
43665;DHT22;29263;48.172;11.484;2023-04-16T00:22:14;5.60;99.90
43665;DHT22;29263;48.172;11.484;2023-04-16T00:24:40;5.60;99.90
43665;DHT22;29263;48.172;11.484;2023-04-16T00:27:06;5.60;99.90
43665;DHT22;29263;48.172;11.484;2023-04-16T00:29:32;5.60;99.90
43665;DHT22;29263;48.172;11.484;2023-04-16T00:31:59;5.60;99.90
43665;DHT22;29263;48.172;11.484;2023-04-16T00:34:24;5.50;99.90
43665;DHT22;29263;48.172;11.484;2023-04-16T00:36:50;5.50;99.90
43665;DHT22;29263;48.172;11.484;2023-04-16T00:39:16;5.50;99.90
43665;DHT22;29263;48.172;11.484;2023-04-16T00:41:42;5.50;99.90
43665;DHT22;29263;48.172;11.484;2023-04-16T00:44:08;5.60;99.90
43665;DHT22;29263;48.172;11.484;2023-04-16T00:46:33;5.60;99.90
43665;DHT22;29263;48.172;11.484;2023-04-16T00:49:00;5.50;99.90
43665;DHT22;29263;48.172;11.484;2023-04-16T00:51:26;5.60;99.90
43665;DHT22;29263;48.172;11.484;2023-04-16T00:53:52;5.50;99.90
43665;DHT22;29263;48.172;11.484;2023-04-16T00:56:21;5.60;99.90
43665;DHT22;29263;48.172;11.484;2023-04-16T00:58:48;5.60;99.90
43665;DHT22;29263;48.172;11.484;2023-04-16T01:01:14;5.60;99.90
43665;DHT22;29263;48.172;11.484;2023-04-16T01:03:45;5.60;99.90
43665;DHT22;29263;48.172;11.484;2023-04-16T01:06:11;5.60;99.90
43665;DHT22;29263;48.172;11.484;2023-04-16T01:08:40;5.70;99.90
43665;DHT22;29263;48.172;11.484;2023-04-16T01:11:06;5.60;99.90
43665;DHT22;29263;48.172;11.484;2023-04-16T01:13:32;5.60;99.90
43665;DHT22;29263;48.172;11.484;2023-04-16T01:15:59;5.60;99.90
43665;DHT22;29263;48.172;11.484;2023-04-16T01:18:25;5.60;99.90
43665;DHT22;29263;48.172;11.484;2023-04-16T01:20:51;5.70;99.90
43665;DHT22;29263;48.172;11.484;2023-04-16T01:23:17;5.70;99.90
43665;DHT22;29263;48.172;11.484;2023-04-16T01:25:44;5.70;99.90
43665;DHT22;29263;48.172;11.484;2023-04-16T01:28:10;5.60;99.90
43665;DHT22;29263;48.172;11.484;2023-04-16T01:30:36;5.60;99.90
43665;DHT22;29263;48.172;11.484;2023-04-16T01:33:01;5.60;99.90
43665;DHT22;29263;48.172;11.484;2023-04-16T01:35:27;5.60;99.90
43665;DHT22;29263;48.172;11.484;2023-04-16T01:37:53;5.70;99.90
43665;DHT22;29263;48.172;11.484;2023-04-16T01:40:19;5.70;99.90
43665;DHT22;29263;48.172;11.484;2023-04-16T01:42:44;5.70;99.90
43665;DHT22;29263;48.172;11.484;2023-04-16T01:45:10;5.70;99.90
43665;DHT22;29263;48.172;11.484;2023-04-16T01:47:36;5.70;99.90
43665;DHT22;29263;48.172;11.484;2023-04-16T01:50:03;5.70;99.90
43665;DHT22;29263;48.172;11.484;2023-04-16T01:52:31;5.70;99.90
43665;DHT22;29263;48.172;11.484;2023-04-16T01:54:56;5.70;99.90
43665;DHT22;29263;48.172;11.484;2023-04-16T01:57:22;5.70;99.90
43665;DHT22;29263;48.172;11.484;2023-04-16T01:59:48;5.70;99.90
43665;DHT22;29263;48.172;11.484;2023-04-16T02:02:14;5.70;99.90
43665;DHT22;29263;48.172;11.484;2023-04-16T02:04:44;5.70;99.90
43665;DHT22;29263;48.172;11.484;2023-04-16T02:07:11;5.70;99.90
43665;DHT22;29263;48.172;11.484;2023-04-16T02:09:38;5.60;99.90
43665;DHT22;29263;48.172;11.484;2023-04-16T02:12:04;5.60;99.90
43665;DHT22;29263;48.172;11.484;2023-04-16T02:14:31;5.60;99.90
43665;DHT22;29263;48.172;11.484;2023-04-16T02:16:56;5.60;99.90
43665;DHT22;29263;48.172;11.484;2023-04-16T02:19:22;5.60;99.90
43665;DHT22;29263;48.172;11.484;2023-04-16T02:21:50;5.60;99.90
43665;DHT22;29263;48.172;11.484;2023-04-16T02:24:15;5.60;99.90
43665;DHT22;29263;48.172;11.484;2023-04-16T02:26:41;5.70;99.90
43665;DHT22;29263;48.172;11.484;2023-04-16T02:29:07;5.70;99.90
43665;DHT22;29263;48.172;11.484;2023-04-16T02:31:32;5.70;99.90
43665;DHT22;29263;48.172;11.484;2023-04-16T02:33:58;5.70;99.90
43665;DHT22;29263;48.172;11.484;2023-04-16T02:36:24;5.80;99.90
43665;DHT22;29263;48.172;11.484;2023-04-16T02:38:49;5.80;99.90
43665;DHT22;29263;48.172;11.484;2023-04-16T02:41:16;5.70;99.90
43665;DHT22;29263;48.172;11.484;2023-04-16T02:43:41;5.70;99.90
43665;DHT22;29263;48.172;11.484;2023-04-16T02:46:07;5.70;99.90
43665;DHT22;29263;48.172;11.484;2023-04-16T02:48:32;5.70;99.90
43665;DHT22;29263;48.172;11.484;2023-04-16T02:50:58;5.70;99.90
43665;DHT22;29263;48.172;11.484;2023-04-16T02:53:24;5.70;99.90
43665;DHT22;29263;48.172;11.484;2023-04-16T02:55:50;5.70;99.90
43665;DHT22;29263;48.172;11.484;2023-04-16T02:58:19;5.60;99.90
43665;DHT22;29263;48.172;11.484;2023-04-16T03:00:45;5.70;99.90
43665;DHT22;29263;48.172;11.484;2023-04-16T03:03:11;5.70;99.90
43665;DHT22;29263;48.172;11.484;2023-04-16T03:05:36;5.60;99.90
43665;DHT22;29263;48.172;11.484;2023-04-16T03:08:03;5.70;99.90
43665;DHT22;29263;48.172;11.484;2023-04-16T03:10:28;5.70;99.90
43665;DHT22;29263;48.172;11.484;2023-04-16T03:12:54;5.70;99.90
43665;DHT22;29263;48.172;11.484;2023-04-16T03:15:20;5.60;99.90
43665;DHT22;29263;48.172;11.484;2023-04-16T03:17:45;5.70;99.90
43665;DHT22;29263;48.172;11.484;2023-04-16T03:20:11;5.70;99.90
43665;DHT22;29263;48.172;11.484;2023-04-16T03:22:39;5.70;99.90
43665;DHT22;29263;48.172;11.484;2023-04-16T03:25:06;5.70;99.90
43665;DHT22;29263;48.172;11.484;2023-04-16T03:27:32;5.70;99.90
43665;DHT22;29263;48.172;11.484;2023-04-16T03:29:58;5.70;99.90
43665;DHT22;29263;48.172;11.484;2023-04-16T03:32:23;5.70;99.90
43665;DHT22;29263;48.172;11.484;2023-04-16T03:34:49;5.70;99.90
43665;DHT22;29263;48.172;11.484;2023-04-16T03:37:15;5.70;99.90
43665;DHT22;29263;48.172;11.484;2023-04-16T03:39:40;5.70;99.90
43665;DHT22;29263;48.172;11.484;2023-04-16T03:42:06;5.70;99.90
43665;DHT22;29263;48.172;11.484;2023-04-16T03:44:32;5.70;99.90
43665;DHT22;29263;48.172;11.484;2023-04-16T03:46:57;5.70;99.90
43665;DHT22;29263;48.172;11.484;2023-04-16T03:49:23;5.70;99.90
43665;DHT22;29263;48.172;11.484;2023-04-16T03:51:48;5.70;99.90
43665;DHT22;29263;48.172;11.484;2023-04-16T03:54:14;5.70;99.90
43665;DHT22;29263;48.172;11.484;2023-04-16T03:56:40;5.70;99.90
43665;DHT22;29263;48.172;11.484;2023-04-16T03:59:06;5.70;99.90
43665;DHT22;29263;48.172;11.484;2023-04-16T04:01:32;5.60;99.90
43665;DHT22;29263;48.172;11.484;2023-04-16T04:03:57;5.60;99.90
43665;DHT22;29263;48.172;11.484;2023-04-16T04:06:23;5.60;99.90
43665;DHT22;29263;48.172;11.484;2023-04-16T04:08:52;5.60;99.90
43665;DHT22;29263;48.172;11.484;2023-04-16T04:11:18;5.50;99.90
43665;DHT22;29263;48.172;11.484;2023-04-16T04:13:44;5.50;99.90
43665;DHT22;29263;48.172;11.484;2023-04-16T04:16:10;5.50;99.90
43665;DHT22;29263;48.172;11.484;2023-04-16T04:18:35;5.40;99.90
43665;DHT22;29263;48.172;11.484;2023-04-16T04:21:05;5.40;99.90
43665;DHT22;29263;48.172;11.484;2023-04-16T04:23:31;5.50;99.90
43665;DHT22;29263;48.172;11.484;2023-04-16T04:25:57;5.40;99.90
43665;DHT22;29263;48.172;11.484;2023-04-16T04:28:22;5.50;99.90
43665;DHT22;29263;48.172;11.484;2023-04-16T04:30:48;5.40;99.90
43665;DHT22;29263;48.172;11.484;2023-04-16T04:33:13;5.40;99.90
43665;DHT22;29263;48.172;11.484;2023-04-16T04:35:39;5.40;99.90
43665;DHT22;29263;48.172;11.484;2023-04-16T04:38:05;5.40;99.90
43665;DHT22;29263;48.172;11.484;2023-04-16T04:40:31;5.50;99.90
43665;DHT22;29263;48.172;11.484;2023-04-16T04:42:56;5.50;99.90
43665;DHT22;29263;48.172;11.484;2023-04-16T04:45:22;5.40;99.90
43665;DHT22;29263;48.172;11.484;2023-04-16T04:47:51;5.50;99.90
43665;DHT22;29263;48.172;11.484;2023-04-16T04:50:17;5.40;99.90
43665;DHT22;29263;48.172;11.484;2023-04-16T04:52:43;5.50;99.90
43665;DHT22;29263;48.172;11.484;2023-04-16T04:55:08;5.50;99.90
43665;DHT22;29263;48.172;11.484;2023-04-16T04:57:34;5.50;99.90
43665;DHT22;29263;48.172;11.484;2023-04-16T05:00:00;5.50;99.90
43665;DHT22;29263;48.172;11.484;2023-04-16T05:02:28;5.50;99.90
43665;DHT22;29263;48.172;11.484;2023-04-16T05:04:53;5.50;99.90
43665;DHT22;29263;48.172;11.484;2023-04-16T05:07:20;5.50;99.90
43665;DHT22;29263;48.172;11.484;2023-04-16T05:09:45;5.50;99.90
43665;DHT22;29263;48.172;11.484;2023-04-16T05:12:11;5.50;99.90
43665;DHT22;29263;48.172;11.484;2023-04-16T05:14:36;5.50;99.90
43665;DHT22;29263;48.172;11.484;2023-04-16T05:17:06;5.60;99.90
43665;DHT22;29263;48.172;11.484;2023-04-16T05:19:32;5.70;99.90
43665;DHT22;29263;48.172;11.484;2023-04-16T05:21:58;5.70;99.90
43665;DHT22;29263;48.172;11.484;2023-04-16T05:24:24;5.70;99.90
43665;DHT22;29263;48.172;11.484;2023-04-16T05:26:49;5.70;99.90
43665;DHT22;29263;48.172;11.484;2023-04-16T05:29:15;5.70;99.90
43665;DHT22;29263;48.172;11.484;2023-04-16T05:31:41;5.80;99.90
43665;DHT22;29263;48.172;11.484;2023-04-16T05:34:06;5.70;99.90
43665;DHT22;29263;48.172;11.484;2023-04-16T05:36:32;5.70;99.90
43665;DHT22;29263;48.172;11.484;2023-04-16T05:38:58;5.80;99.90
43665;DHT22;29263;48.172;11.484;2023-04-16T05:41:23;5.80;99.90
43665;DHT22;29263;48.172;11.484;2023-04-16T05:43:49;5.80;99.90
43665;DHT22;29263;48.172;11.484;2023-04-16T05:46:14;5.80;99.90
43665;DHT22;29263;48.172;11.484;2023-04-16T05:48:41;5.80;99.90
43665;DHT22;29263;48.172;11.484;2023-04-16T05:51:07;5.80;99.90
43665;DHT22;29263;48.172;11.484;2023-04-16T05:53:32;5.80;99.90
43665;DHT22;29263;48.172;11.484;2023-04-16T05:55:58;5.90;99.90
43665;DHT22;29263;48.172;11.484;2023-04-16T05:58:23;5.90;99.90
43665;DHT22;29263;48.172;11.484;2023-04-16T06:00:49;5.90;99.90
43665;DHT22;29263;48.172;11.484;2023-04-16T06:03:14;5.90;99.90
43665;DHT22;29263;48.172;11.484;2023-04-16T06:05:44;6.00;99.90
43665;DHT22;29263;48.172;11.484;2023-04-16T06:08:09;5.90;99.90
43665;DHT22;29263;48.172;11.484;2023-04-16T06:10:35;5.90;99.90
43665;DHT22;29263;48.172;11.484;2023-04-16T06:13:01;5.80;99.90
43665;DHT22;29263;48.172;11.484;2023-04-16T06:15:26;5.90;99.90
43665;DHT22;29263;48.172;11.484;2023-04-16T06:17:54;5.90;99.90
43665;DHT22;29263;48.172;11.484;2023-04-16T06:20:20;6.00;99.90
43665;DHT22;29263;48.172;11.484;2023-04-16T06:22:45;6.00;99.90
43665;DHT22;29263;48.172;11.484;2023-04-16T06:25:11;6.00;99.90
43665;DHT22;29263;48.172;11.484;2023-04-16T06:27:37;6.00;99.90
43665;DHT22;29263;48.172;11.484;2023-04-16T06:30:02;6.00;99.90
43665;DHT22;29263;48.172;11.484;2023-04-16T06:32:29;6.10;99.90
43665;DHT22;29263;48.172;11.484;2023-04-16T06:34:55;6.20;99.90
43665;DHT22;29263;48.172;11.484;2023-04-16T06:37:23;6.20;99.90
43665;DHT22;29263;48.172;11.484;2023-04-16T06:39:48;6.20;99.90
43665;DHT22;29263;48.172;11.484;2023-04-16T06:42:14;6.20;99.90
43665;DHT22;29263;48.172;11.484;2023-04-16T06:44:40;6.40;99.90
43665;DHT22;29263;48.172;11.484;2023-04-16T06:47:05;6.40;99.90
43665;DHT22;29263;48.172;11.484;2023-04-16T06:49:31;6.50;99.90
43665;DHT22;29263;48.172;11.484;2023-04-16T06:51:57;6.60;99.90
43665;DHT22;29263;48.172;11.484;2023-04-16T06:54:22;6.50;99.90
43665;DHT22;29263;48.172;11.484;2023-04-16T06:56:48;6.60;99.90
43665;DHT22;29263;48.172;11.484;2023-04-16T06:59:13;6.60;99.90
43665;DHT22;29263;48.172;11.484;2023-04-16T07:01:42;6.60;99.90
43665;DHT22;29263;48.172;11.484;2023-04-16T07:04:08;6.60;99.90
43665;DHT22;29263;48.172;11.484;2023-04-16T07:06:33;6.60;99.90
43665;DHT22;29263;48.172;11.484;2023-04-16T07:08:59;6.50;99.90
43665;DHT22;29263;48.172;11.484;2023-04-16T07:11:25;6.60;99.90
43665;DHT22;29263;48.172;11.484;2023-04-16T07:13:51;6.60;99.90
43665;DHT22;29263;48.172;11.484;2023-04-16T07:16:18;6.70;99.90
43665;DHT22;29263;48.172;11.484;2023-04-16T07:18:43;6.70;99.90
43665;DHT22;29263;48.172;11.484;2023-04-16T07:21:12;6.70;99.90
43665;DHT22;29263;48.172;11.484;2023-04-16T07:23:38;6.80;99.90
43665;DHT22;29263;48.172;11.484;2023-04-16T07:26:04;6.70;99.90
43665;DHT22;29263;48.172;11.484;2023-04-16T07:28:29;6.70;99.90
43665;DHT22;29263;48.172;11.484;2023-04-16T07:30:55;6.80;99.90
43665;DHT22;29263;48.172;11.484;2023-04-16T07:33:21;6.80;99.90
43665;DHT22;29263;48.172;11.484;2023-04-16T07:35:46;6.80;99.90
43665;DHT22;29263;48.172;11.484;2023-04-16T07:38:12;6.80;99.90
43665;DHT22;29263;48.172;11.484;2023-04-16T07:40:38;6.90;99.90
43665;DHT22;29263;48.172;11.484;2023-04-16T07:43:03;6.90;99.90
43665;DHT22;29263;48.172;11.484;2023-04-16T07:45:29;7.00;99.90
43665;DHT22;29263;48.172;11.484;2023-04-16T07:47:54;7.10;99.90
43665;DHT22;29263;48.172;11.484;2023-04-16T07:50:20;7.10;99.90
43665;DHT22;29263;48.172;11.484;2023-04-16T07:52:46;7.20;99.90
43665;DHT22;29263;48.172;11.484;2023-04-16T07:55:12;7.20;99.90
43665;DHT22;29263;48.172;11.484;2023-04-16T07:57:38;7.20;99.90
43665;DHT22;29263;48.172;11.484;2023-04-16T08:00:05;7.10;99.90
43665;DHT22;29263;48.172;11.484;2023-04-16T08:02:31;7.10;99.90
43665;DHT22;29263;48.172;11.484;2023-04-16T08:04:57;7.00;99.90
43665;DHT22;29263;48.172;11.484;2023-04-16T08:07:22;7.00;99.90
43665;DHT22;29263;48.172;11.484;2023-04-16T08:09:50;6.90;99.90
43665;DHT22;29263;48.172;11.484;2023-04-16T08:12:17;7.10;99.90
43665;DHT22;29263;48.172;11.484;2023-04-16T08:14:43;7.10;99.90
43665;DHT22;29263;48.172;11.484;2023-04-16T08:17:10;7.20;99.90
43665;DHT22;29263;48.172;11.484;2023-04-16T08:19:40;7.30;99.90
43665;DHT22;29263;48.172;11.484;2023-04-16T08:22:06;7.40;99.90
43665;DHT22;29263;48.172;11.484;2023-04-16T08:24:31;7.50;99.90
43665;DHT22;29263;48.172;11.484;2023-04-16T08:26:57;7.60;99.90
43665;DHT22;29263;48.172;11.484;2023-04-16T08:29:22;7.70;99.90
43665;DHT22;29263;48.172;11.484;2023-04-16T08:31:52;7.80;99.90
43665;DHT22;29263;48.172;11.484;2023-04-16T08:34:18;7.90;99.90
43665;DHT22;29263;48.172;11.484;2023-04-16T08:36:43;8.00;99.90
43665;DHT22;29263;48.172;11.484;2023-04-16T08:39:10;8.00;99.90
43665;DHT22;29263;48.172;11.484;2023-04-16T08:41:37;8.10;99.90
43665;DHT22;29263;48.172;11.484;2023-04-16T08:44:08;8.30;99.90
43665;DHT22;29263;48.172;11.484;2023-04-16T08:46:36;8.40;99.90
43665;DHT22;29263;48.172;11.484;2023-04-16T08:49:05;8.40;99.90
43665;DHT22;29263;48.172;11.484;2023-04-16T08:51:33;8.40;99.90
43665;DHT22;29263;48.172;11.484;2023-04-16T08:54:07;8.50;99.90
43665;DHT22;29263;48.172;11.484;2023-04-16T08:56:35;8.50;99.90
43665;DHT22;29263;48.172;11.484;2023-04-16T08:59:02;8.50;99.90
43665;DHT22;29263;48.172;11.484;2023-04-16T09:01:31;8.60;99.90
43665;DHT22;29263;48.172;11.484;2023-04-16T09:03:58;8.70;99.90
43665;DHT22;29263;48.172;11.484;2023-04-16T09:06:26;8.90;99.90
43665;DHT22;29263;48.172;11.484;2023-04-16T09:08:53;9.10;99.90
43665;DHT22;29263;48.172;11.484;2023-04-16T09:11:19;9.20;99.90
43665;DHT22;29263;48.172;11.484;2023-04-16T09:13:46;9.20;99.90
43665;DHT22;29263;48.172;11.484;2023-04-16T09:16:13;9.10;99.90
43665;DHT22;29263;48.172;11.484;2023-04-16T09:18:39;9.20;99.90
43665;DHT22;29263;48.172;11.484;2023-04-16T09:21:05;9.20;99.90
43665;DHT22;29263;48.172;11.484;2023-04-16T09:23:32;9.30;99.90
43665;DHT22;29263;48.172;11.484;2023-04-16T09:25:58;9.40;99.90
43665;DHT22;29263;48.172;11.484;2023-04-16T09:28:45;9.30;99.90
43665;DHT22;29263;48.172;11.484;2023-04-16T09:31:16;9.50;99.90
43665;DHT22;29263;48.172;11.484;2023-04-16T09:33:42;9.60;99.90
43665;DHT22;29263;48.172;11.484;2023-04-16T09:36:08;9.70;99.90
43665;DHT22;29263;48.172;11.484;2023-04-16T09:38:47;9.80;99.90
43665;DHT22;29263;48.172;11.484;2023-04-16T09:41:13;9.80;99.90
43665;DHT22;29263;48.172;11.484;2023-04-16T09:44:02;10.00;99.90
43665;DHT22;29263;48.172;11.484;2023-04-16T09:46:41;10.10;99.90
43665;DHT22;29263;48.172;11.484;2023-04-16T09:49:13;10.20;99.90
43665;DHT22;29263;48.172;11.484;2023-04-16T09:51:44;10.30;99.90
43665;DHT22;29263;48.172;11.484;2023-04-16T09:54:10;10.40;99.90
43665;DHT22;29263;48.172;11.484;2023-04-16T09:56:43;10.60;99.90
43665;DHT22;29263;48.172;11.484;2023-04-16T09:59:17;10.60;99.90
43665;DHT22;29263;48.172;11.484;2023-04-16T10:01:43;10.60;99.90
43665;DHT22;29263;48.172;11.484;2023-04-16T10:04:11;10.60;99.90
43665;DHT22;29263;48.172;11.484;2023-04-16T10:06:36;10.50;99.90
43665;DHT22;29263;48.172;11.484;2023-04-16T10:09:06;10.50;99.90
43665;DHT22;29263;48.172;11.484;2023-04-16T10:11:32;10.30;99.90
43665;DHT22;29263;48.172;11.484;2023-04-16T10:13:58;10.20;99.90
43665;DHT22;29263;48.172;11.484;2023-04-16T10:16:25;10.20;99.90
43665;DHT22;29263;48.172;11.484;2023-04-16T10:18:51;10.30;99.90
43665;DHT22;29263;48.172;11.484;2023-04-16T10:21:17;10.20;99.90
43665;DHT22;29263;48.172;11.484;2023-04-16T10:23:43;10.30;99.90
43665;DHT22;29263;48.172;11.484;2023-04-16T10:26:09;10.30;99.90
43665;DHT22;29263;48.172;11.484;2023-04-16T10:28:36;10.30;99.90
43665;DHT22;29263;48.172;11.484;2023-04-16T10:31:03;10.30;99.90
43665;DHT22;29263;48.172;11.484;2023-04-16T10:33:32;10.30;99.90
43665;DHT22;29263;48.172;11.484;2023-04-16T10:36:29;10.10;99.90
43665;DHT22;29263;48.172;11.484;2023-04-16T10:38:59;10.10;99.90
43665;DHT22;29263;48.172;11.484;2023-04-16T10:41:25;10.20;99.90
43665;DHT22;29263;48.172;11.484;2023-04-16T10:43:52;10.20;99.90
43665;DHT22;29263;48.172;11.484;2023-04-16T10:48:47;10.10;99.90
43665;DHT22;29263;48.172;11.484;2023-04-16T10:51:50;10.10;99.90
43665;DHT22;29263;48.172;11.484;2023-04-16T10:56:45;10.10;99.90
43665;DHT22;29263;48.172;11.484;2023-04-16T10:59:12;10.20;99.90
43665;DHT22;29263;48.172;11.484;2023-04-16T11:01:45;10.20;99.90
43665;DHT22;29263;48.172;11.484;2023-04-16T11:09:51;10.40;99.90
43665;DHT22;29263;48.172;11.484;2023-04-16T11:15:11;10.30;99.90
43665;DHT22;29263;48.172;11.484;2023-04-16T11:17:40;10.30;99.90
43665;DHT22;29263;48.172;11.484;2023-04-16T11:20:07;10.10;99.90
43665;DHT22;29263;48.172;11.484;2023-04-16T11:22:36;10.00;99.90
43665;DHT22;29263;48.172;11.484;2023-04-16T11:25:02;10.00;99.90
43665;DHT22;29263;48.172;11.484;2023-04-16T11:27:31;9.90;99.90
43665;DHT22;29263;48.172;11.484;2023-04-16T11:30:02;9.90;99.90
43665;DHT22;29263;48.172;11.484;2023-04-16T11:32:36;9.80;99.90
43665;DHT22;29263;48.172;11.484;2023-04-16T11:35:03;9.90;99.90
43665;DHT22;29263;48.172;11.484;2023-04-16T11:37:34;9.90;99.90
43665;DHT22;29263;48.172;11.484;2023-04-16T11:40:01;9.90;99.90
43665;DHT22;29263;48.172;11.484;2023-04-16T11:42:27;9.80;99.90
43665;DHT22;29263;48.172;11.484;2023-04-16T11:44:57;9.90;99.90
43665;DHT22;29263;48.172;11.484;2023-04-16T11:47:25;10.00;99.90
43665;DHT22;29263;48.172;11.484;2023-04-16T11:49:51;10.00;99.90
43665;DHT22;29263;48.172;11.484;2023-04-16T11:54:55;9.90;99.90
43665;DHT22;29263;48.172;11.484;2023-04-16T11:57:27;9.80;99.90
43665;DHT22;29263;48.172;11.484;2023-04-16T11:59:54;9.70;99.90
43665;DHT22;29263;48.172;11.484;2023-04-16T12:07:56;9.70;99.90
43665;DHT22;29263;48.172;11.484;2023-04-16T12:10:23;9.70;99.90
43665;DHT22;29263;48.172;11.484;2023-04-16T12:12:49;9.70;99.90
43665;DHT22;29263;48.172;11.484;2023-04-16T12:15:15;9.70;99.90
43665;DHT22;29263;48.172;11.484;2023-04-16T12:17:41;9.60;99.90
43665;DHT22;29263;48.172;11.484;2023-04-16T12:20:13;9.60;99.90
43665;DHT22;29263;48.172;11.484;2023-04-16T12:22:44;9.60;99.90
43665;DHT22;29263;48.172;11.484;2023-04-16T12:25:15;9.50;99.90
43665;DHT22;29263;48.172;11.484;2023-04-16T12:27:47;9.50;99.90
43665;DHT22;29263;48.172;11.484;2023-04-16T12:30:14;9.40;99.90
43665;DHT22;29263;48.172;11.484;2023-04-16T12:32:41;9.50;99.90
43665;DHT22;29263;48.172;11.484;2023-04-16T12:35:09;9.40;99.90
43665;DHT22;29263;48.172;11.484;2023-04-16T12:37:35;9.40;99.90
43665;DHT22;29263;48.172;11.484;2023-04-16T12:40:01;9.30;99.90
43665;DHT22;29263;48.172;11.484;2023-04-16T12:42:27;9.30;99.90
43665;DHT22;29263;48.172;11.484;2023-04-16T12:44:59;9.30;99.90
43665;DHT22;29263;48.172;11.484;2023-04-16T12:47:24;9.30;99.90
43665;DHT22;29263;48.172;11.484;2023-04-16T12:49:50;9.20;99.90
43665;DHT22;29263;48.172;11.484;2023-04-16T12:52:16;9.20;99.90
43665;DHT22;29263;48.172;11.484;2023-04-16T12:54:41;9.20;99.90
43665;DHT22;29263;48.172;11.484;2023-04-16T12:57:07;9.20;99.90
43665;DHT22;29263;48.172;11.484;2023-04-16T12:59:32;9.30;99.90
43665;DHT22;29263;48.172;11.484;2023-04-16T13:02:00;9.20;99.90
43665;DHT22;29263;48.172;11.484;2023-04-16T13:04:26;9.30;99.90
43665;DHT22;29263;48.172;11.484;2023-04-16T13:06:52;9.40;99.90
43665;DHT22;29263;48.172;11.484;2023-04-16T13:09:18;9.50;99.90
43665;DHT22;29263;48.172;11.484;2023-04-16T13:11:44;9.40;99.90
43665;DHT22;29263;48.172;11.484;2023-04-16T13:14:10;9.50;99.90
43665;DHT22;29263;48.172;11.484;2023-04-16T13:16:36;9.50;99.90
43665;DHT22;29263;48.172;11.484;2023-04-16T13:19:03;9.40;99.90
43665;DHT22;29263;48.172;11.484;2023-04-16T13:21:29;9.40;99.90
43665;DHT22;29263;48.172;11.484;2023-04-16T13:23:54;9.40;99.90
43665;DHT22;29263;48.172;11.484;2023-04-16T13:26:20;9.40;99.90
43665;DHT22;29263;48.172;11.484;2023-04-16T13:28:46;9.30;99.90
43665;DHT22;29263;48.172;11.484;2023-04-16T13:31:12;9.30;99.90
43665;DHT22;29263;48.172;11.484;2023-04-16T13:33:38;9.30;99.90
43665;DHT22;29263;48.172;11.484;2023-04-16T13:36:03;9.30;99.90
43665;DHT22;29263;48.172;11.484;2023-04-16T13:38:29;9.40;99.90
43665;DHT22;29263;48.172;11.484;2023-04-16T13:40:55;9.30;99.90
43665;DHT22;29263;48.172;11.484;2023-04-16T13:43:21;9.40;99.90
43665;DHT22;29263;48.172;11.484;2023-04-16T13:45:46;9.30;99.90
43665;DHT22;29263;48.172;11.484;2023-04-16T13:48:12;9.30;99.90
43665;DHT22;29263;48.172;11.484;2023-04-16T13:50:38;9.30;99.90
43665;DHT22;29263;48.172;11.484;2023-04-16T13:53:03;9.30;99.90
43665;DHT22;29263;48.172;11.484;2023-04-16T13:55:30;9.30;99.90
43665;DHT22;29263;48.172;11.484;2023-04-16T13:57:56;9.30;99.90
43665;DHT22;29263;48.172;11.484;2023-04-16T14:00:22;9.30;99.90
43665;DHT22;29263;48.172;11.484;2023-04-16T14:02:48;9.20;99.90
43665;DHT22;29263;48.172;11.484;2023-04-16T14:05:14;9.20;99.90
43665;DHT22;29263;48.172;11.484;2023-04-16T14:07:40;9.20;99.90
43665;DHT22;29263;48.172;11.484;2023-04-16T14:10:06;9.20;99.90
43665;DHT22;29263;48.172;11.484;2023-04-16T14:12:31;9.20;99.90
43665;DHT22;29263;48.172;11.484;2023-04-16T14:14:57;9.10;99.90
43665;DHT22;29263;48.172;11.484;2023-04-16T14:17:23;9.10;99.90
43665;DHT22;29263;48.172;11.484;2023-04-16T14:19:48;9.10;99.90
43665;DHT22;29263;48.172;11.484;2023-04-16T14:22:14;9.10;99.90
43665;DHT22;29263;48.172;11.484;2023-04-16T14:24:42;9.20;99.90
43665;DHT22;29263;48.172;11.484;2023-04-16T14:27:08;9.20;99.90
43665;DHT22;29263;48.172;11.484;2023-04-16T14:29:34;9.20;99.90
43665;DHT22;29263;48.172;11.484;2023-04-16T14:32:00;9.20;99.90
43665;DHT22;29263;48.172;11.484;2023-04-16T14:34:26;9.20;99.90
43665;DHT22;29263;48.172;11.484;2023-04-16T14:36:52;9.20;99.90
43665;DHT22;29263;48.172;11.484;2023-04-16T14:39:17;9.30;99.90
43665;DHT22;29263;48.172;11.484;2023-04-16T14:41:43;9.30;99.90
43665;DHT22;29263;48.172;11.484;2023-04-16T14:44:09;9.40;99.90
43665;DHT22;29263;48.172;11.484;2023-04-16T14:46:34;9.40;99.90
43665;DHT22;29263;48.172;11.484;2023-04-16T14:49:00;9.40;99.90
43665;DHT22;29263;48.172;11.484;2023-04-16T14:51:26;9.40;99.90
43665;DHT22;29263;48.172;11.484;2023-04-16T14:53:52;9.40;99.90
43665;DHT22;29263;48.172;11.484;2023-04-16T14:56:17;9.30;99.90
43665;DHT22;29263;48.172;11.484;2023-04-16T14:58:43;9.50;99.90
43665;DHT22;29263;48.172;11.484;2023-04-16T15:01:08;9.50;99.90
43665;DHT22;29263;48.172;11.484;2023-04-16T15:03:39;9.40;99.90
43665;DHT22;29263;48.172;11.484;2023-04-16T15:06:05;9.30;99.90
43665;DHT22;29263;48.172;11.484;2023-04-16T15:08:30;9.30;99.90
43665;DHT22;29263;48.172;11.484;2023-04-16T15:10:56;9.30;99.90
43665;DHT22;29263;48.172;11.484;2023-04-16T15:13:21;9.30;99.90
43665;DHT22;29263;48.172;11.484;2023-04-16T15:15:47;9.30;99.90
43665;DHT22;29263;48.172;11.484;2023-04-16T15:18:13;9.30;99.90
43665;DHT22;29263;48.172;11.484;2023-04-16T15:20:38;9.20;99.90
43665;DHT22;29263;48.172;11.484;2023-04-16T15:23:04;9.20;99.90
43665;DHT22;29263;48.172;11.484;2023-04-16T15:25:30;9.30;99.90
43665;DHT22;29263;48.172;11.484;2023-04-16T15:27:55;9.30;99.90
43665;DHT22;29263;48.172;11.484;2023-04-16T15:30:21;9.40;99.90
43665;DHT22;29263;48.172;11.484;2023-04-16T15:32:47;9.30;99.90
43665;DHT22;29263;48.172;11.484;2023-04-16T15:35:13;9.30;99.90
43665;DHT22;29263;48.172;11.484;2023-04-16T15:37:38;9.30;99.90
43665;DHT22;29263;48.172;11.484;2023-04-16T15:40:05;9.30;99.90
43665;DHT22;29263;48.172;11.484;2023-04-16T15:42:32;9.40;99.90
43665;DHT22;29263;48.172;11.484;2023-04-16T15:44:58;9.40;99.90
43665;DHT22;29263;48.172;11.484;2023-04-16T15:47:24;9.60;99.90